Terminal Aerodrome Forecast
Issued by NWS

Home | Current Version | Previous Version | Text Only | Print | Product List | Glossary Off
Versions: 1 2 3 4 5 6 7 8 9 10 11 12 13 14 15 16 17 18 19 20 21 22 23 24 25 26 27

563
FTUS43 KICT 270520
TAFHUT
TAF
KHUT 270520Z 2706/2806 02011KT P6SM VCSH SCT007 OVC020
     FM270700 01011KT P6SM SCT005 OVC007
     FM270900 01010KT 5SM BR SCT003 OVC005
     FM271500 36009KT P6SM BKN009
     FM271700 36009KT P6SM BKN015
     FM272000 01007KT P6SM SCT025=

USA.gov is the U.S. government's official web portal to all federal, state and local government web resources and services.